Time;durP1;ratioP1;P1;durP2;ratioP2;P2;SDS_P1;SDS_P2;PMS_P1;PMS_P2;Temp;Humidity;BMP_temperature;BMP_pressure;BME280_temperature;BME280_humidity;BME280_pressure;Samples;Min_cycle;Max_cycle;Signal;HPM_P1;HPM_P2
2021/07/27 00:02:13;;;;;;;7.95;5.60;;;;;;;-145.70;100.00;63560.63;5026128;28;20042;-57
2021/07/27 00:04:39;;;;;;;7.53;5.03;;;;;;;-145.70;100.00;63560.63;5025972;28;20025;-57
2021/07/27 00:07:04;;;;;;;7.88;4.80;;;;;;;-145.70;100.00;63560.63;5022295;28;20017;-57
2021/07/27 00:09:29;;;;;;;8.68;5.13;;;;;;;-145.70;100.00;63560.63;5019300;28;20160;-58
2021/07/27 00:11:55;;;;;;;8.48;4.55;;;;;;;-145.70;100.00;63560.63;5022856;28;20099;-57
2021/07/27 00:14:20;;;;;;;9.77;5.03;;;;;;;-145.70;100.00;63560.63;5027124;28;20171;-57
2021/07/27 00:16:46;;;;;;;8.07;4.55;;;;;;;-145.70;100.00;63560.63;5027046;28;20033;-57
2021/07/27 00:19:11;;;;;;;7.13;4.82;;;;;;;-145.70;100.00;63560.63;5020250;28;20034;-57
2021/07/27 00:21:36;;;;;;;8.85;5.15;;;;;;;-145.70;100.00;63560.63;5024852;28;20616;-57
2021/07/27 00:24:02;;;;;;;7.68;4.70;;;;;;;-145.70;100.00;63560.63;5017872;28;20116;-53
2021/07/27 00:26:28;;;;;;;8.07;4.55;;;;;;;-145.70;100.00;63560.63;5021184;28;21097;-57
2021/07/27 00:28:53;;;;;;;8.10;5.00;;;;;;;-145.70;100.00;63560.63;5023715;28;20021;-57
2021/07/27 00:31:19;;;;;;;7.88;4.75;;;;;;;-145.70;100.00;63560.63;5021918;28;20528;-57
2021/07/27 00:33:46;;;;;;;8.48;4.80;;;;;;;-145.70;100.00;63560.63;5020971;28;20049;-57
2021/07/27 00:36:11;;;;;;;7.53;4.90;;;;;;;-145.70;100.00;63560.63;5016475;28;20105;-58
2021/07/27 00:38:36;;;;;;;8.90;4.53;;;;;;;-145.70;100.00;63560.63;5022137;28;20155;-58
2021/07/27 00:41:02;;;;;;;9.23;4.90;;;;;;;-145.70;100.00;63560.63;5020638;28;20404;-58
2021/07/27 00:43:27;;;;;;;7.15;4.68;;;;;;;-145.70;100.00;63560.63;5022188;28;20389;-56
2021/07/27 00:45:53;;;;;;;8.98;4.90;;;;;;;-145.70;100.00;63560.63;5022131;28;20037;-57
2021/07/27 00:48:18;;;;;;;7.20;4.90;;;;;;;-145.70;100.00;63560.63;5017769;28;20033;-57
2021/07/27 00:50:44;;;;;;;7.93;4.82;;;;;;;-145.70;100.00;63560.63;5020586;28;20091;-57
2021/07/27 00:53:09;;;;;;;7.75;4.50;;;;;;;-145.70;100.00;63560.63;5016748;28;20026;-57
2021/07/27 00:55:34;;;;;;;8.20;4.93;;;;;;;-145.70;100.00;63560.63;5022375;28;20069;-56
2021/07/27 00:58:00;;;;;;;7.97;4.95;;;;;;;-145.70;100.00;63560.63;5020920;28;20036;-58
2021/07/27 01:00:27;;;;;;;9.10;4.93;;;;;;;-145.70;100.00;63560.63;5023514;28;20091;-58
2021/07/27 01:02:53;;;;;;;8.48;5.00;;;;;;;-145.70;100.00;63560.63;5022195;28;20778;-58
2021/07/27 01:05:18;;;;;;;7.93;4.97;;;;;;;-145.70;100.00;63560.63;5018646;28;20037;-58
2021/07/27 01:07:44;;;;;;;8.68;5.10;;;;;;;-145.70;100.00;63560.63;5023905;28;20057;-58
2021/07/27 01:10:12;;;;;;;8.88;4.90;;;;;;;-145.70;100.00;63560.63;5026104;28;20551;-56
2021/07/27 01:12:38;;;;;;;7.65;4.75;;;;;;;-145.70;100.00;63560.63;5021663;28;20029;-57
2021/07/27 01:15:05;;;;;;;8.30;4.63;;;;;;;-145.70;100.00;63560.63;5014269;28;20113;-57
2021/07/27 01:17:30;;;;;;;8.45;4.95;;;;;;;-145.70;100.00;63560.63;5021518;28;20060;-57
2021/07/27 01:20:04;;;;;;;7.38;4.53;;;;;;;-145.70;100.00;63560.63;5022855;28;20049;-57
2021/07/27 01:42:08;;;;;;;8.70;4.90;;;;;;;-145.70;100.00;63560.63;5011558;28;20033;-57
2021/07/27 01:44:46;;;;;;;7.47;4.55;;;;;;;-145.70;100.00;63560.63;5021776;28;20045;-56
2021/07/27 01:47:19;;;;;;;12.60;5.03;;;;;;;-145.70;100.00;63560.63;5027262;28;20178;-58
2021/07/27 01:49:46;;;;;;;7.72;4.35;;;;;;;-145.70;100.00;63560.63;5017442;28;20110;-58
2021/07/27 01:52:15;;;;;;;8.30;4.60;;;;;;;-145.70;100.00;63560.63;5002731;28;20033;-58
2021/07/27 01:54:41;;;;;;;9.95;4.95;;;;;;;-145.70;100.00;63560.63;5024718;28;20021;-58
2021/07/27 01:57:08;;;;;;;6.90;4.63;;;;;;;-145.70;100.00;63560.63;5025664;28;20495;-58
2021/07/27 01:59:33;;;;;;;8.57;4.68;;;;;;;-145.70;100.00;63560.63;5025681;28;20033;-57
2021/07/27 02:01:59;;;;;;;7.28;5.00;;;;;;;-145.70;100.00;63560.63;5029323;28;20431;-57
2021/07/27 02:04:24;;;;;;;8.05;4.20;;;;;;;-145.70;100.00;63560.63;5023381;28;20096;-58
2021/07/27 02:06:49;;;;;;;7.30;4.68;;;;;;;-145.70;100.00;63560.63;5023313;28;20018;-58
2021/07/27 02:09:15;;;;;;;7.20;4.53;;;;;;;-145.70;100.00;63560.63;5024160;28;20029;-57
2021/07/27 02:11:45;;;;;;;8.05;5.03;;;;;;;-145.70;100.00;63560.63;5023604;28;20080;-57
2021/07/27 02:14:13;;;;;;;7.68;4.57;;;;;;;-145.70;100.00;63560.63;5005099;28;20029;-57
2021/07/27 02:16:39;;;;;;;7.97;4.60;;;;;;;-145.70;100.00;63560.63;5024843;28;20384;-57
2021/07/27 02:19:05;;;;;;;7.05;4.80;;;;;;;-145.70;100.00;63560.63;5023284;28;20025;-57
2021/07/27 02:21:30;;;;;;;8.02;4.63;;;;;;;-145.70;100.00;63560.63;5025346;28;20768;-57
2021/07/27 02:24:01;;;;;;;8.05;4.70;;;;;;;-145.70;100.00;63560.63;5027039;28;20501;-57
2021/07/27 02:26:27;;;;;;;7.40;4.40;;;;;;;-145.70;100.00;63560.63;5022458;28;20116;-57
2021/07/27 02:28:52;;;;;;;9.82;5.22;;;;;;;-145.70;100.00;63560.63;5023986;28;20585;-57
2021/07/27 02:31:37;;;;;;;7.63;4.35;;;;;;;-145.70;100.00;63560.63;5029016;28;20063;-57
2021/07/27 02:34:03;;;;;;;7.68;4.70;;;;;;;-145.70;100.00;63560.63;5018685;28;20021;-57
2021/07/27 02:36:28;;;;;;;7.32;4.82;;;;;;;-145.70;100.00;63560.63;5023473;28;20033;-57
2021/07/27 02:38:54;;;;;;;7.07;4.85;;;;;;;-145.70;100.00;63560.63;5024975;28;20040;-57
2021/07/27 02:41:25;;;;;;;7.38;4.93;;;;;;;-145.70;100.00;63560.63;5017420;28;20029;-57
2021/07/27 02:43:51;;;;;;;7.88;4.50;;;;;;;-145.70;100.00;63560.63;5015243;28;20092;-57
2021/07/27 02:46:17;;;;;;;7.32;4.35;;;;;;;-145.70;100.00;63560.63;5022233;28;20029;-56
2021/07/27 02:48:43;;;;;;;7.82;4.72;;;;;;;-145.70;100.00;63560.63;5023578;28;20018;-58
2021/07/27 02:51:11;;;;;;;8.90;4.70;;;;;;;-145.70;100.00;63560.63;5026220;28;20056;-56
2021/07/27 02:53:36;;;;;;;8.43;4.38;;;;;;;-145.70;100.00;63560.63;5019690;28;20116;-57
2021/07/27 02:56:02;;;;;;;8.48;4.70;;;;;;;-145.70;100.00;63560.63;5024147;28;20112;-57
2021/07/27 02:58:31;;;;;;;8.02;4.80;;;;;;;-145.70;100.00;63560.63;5021823;28;20041;-58
2021/07/27 03:00:57;;;;;;;7.95;4.28;;;;;;;-145.70;100.00;63560.63;5033612;28;20554;-56
2021/07/27 03:03:22;;;;;;;6.88;4.38;;;;;;;-145.70;100.00;63560.63;5028270;28;20507;-58
2021/07/27 03:05:48;;;;;;;7.70;4.35;;;;;;;-145.70;100.00;63560.63;5024321;28;20025;-59
2021/07/27 03:08:21;;;;;;;8.57;5.03;;;;;;;-145.70;100.00;63560.63;5031595;28;20037;-57
2021/07/27 03:10:46;;;;;;;8.18;4.80;;;;;;;-145.70;100.00;63560.63;5022255;28;20075;-57
2021/07/27 03:13:11;;;;;;;9.90;4.85;;;;;;;-145.70;100.00;63560.63;5027923;28;20296;-57
2021/07/27 03:15:37;;;;;;;7.70;4.63;;;;;;;-145.70;100.00;63560.63;5023010;28;20037;-57
2021/07/27 03:18:02;;;;;;;8.10;4.93;;;;;;;-145.70;100.00;63560.63;5025255;28;20025;-58
2021/07/27 03:20:28;;;;;;;9.90;4.97;;;;;;;-145.70;100.00;63560.63;5021076;28;20423;-59
2021/07/27 03:22:57;;;;;;;9.55;5.47;;;;;;;-145.70;100.00;63560.63;5022769;28;20024;-58
2021/07/27 03:25:23;;;;;;;8.55;5.45;;;;;;;-145.70;100.00;63560.63;5023903;28;20029;-57
2021/07/27 03:27:50;;;;;;;15.65;6.32;;;;;;;-145.70;100.00;63560.63;5021228;28;20017;-59
2021/07/27 03:30:17;;;;;;;10.43;6.13;;;;;;;-145.70;100.00;63560.63;5030063;28;20029;-59
2021/07/27 03:32:43;;;;;;;8.60;5.57;;;;;;;-145.70;100.00;63560.63;5006085;28;20176;-60
2021/07/27 03:35:20;;;;;;;15.23;6.53;;;;;;;-145.70;100.00;63560.63;5006372;28;20542;-60
2021/07/27 03:37:45;;;;;;;11.57;6.22;;;;;;;-145.70;100.00;63560.63;5017794;28;20021;-60
2021/07/27 03:40:11;;;;;;;12.82;6.88;;;;;;;-145.70;100.00;63560.63;5019296;28;20442;-59
2021/07/27 03:42:37;;;;;;;10.27;6.65;;;;;;;-145.70;100.00;63560.63;5021482;28;20032;-59
2021/07/27 03:45:02;;;;;;;10.07;5.88;;;;;;;-145.70;100.00;63560.63;5006493;28;20029;-59
2021/07/27 03:47:28;;;;;;;9.38;5.88;;;;;;;-145.70;100.00;63560.63;5007010;28;20033;-59
2021/07/27 03:49:53;;;;;;;11.27;7.10;;;;;;;-145.70;100.00;63560.63;5013951;28;20034;-59
2021/07/27 03:52:19;;;;;;;11.70;6.65;;;;;;;-145.70;100.00;63560.63;5024204;28;20074;-59
2021/07/27 03:54:44;;;;;;;10.77;6.28;;;;;;;-145.70;100.00;63560.63;5020189;28;20064;-59
2021/07/27 03:57:10;;;;;;;11.40;6.30;;;;;;;-145.70;100.00;63560.63;5023917;28;20416;-57
2021/07/27 03:59:35;;;;;;;11.77;6.15;;;;;;;-145.70;100.00;63560.63;5024570;28;20733;-59
2021/07/27 04:02:01;;;;;;;13.70;6.13;;;;;;;-145.70;100.00;63560.63;5027544;28;20068;-59
2021/07/27 04:04:27;;;;;;;11.52;6.30;;;;;;;-145.70;100.00;63560.63;5027958;28;20083;-58
2021/07/27 04:06:53;;;;;;;10.10;6.38;;;;;;;-145.70;100.00;63560.63;5026660;28;20025;-60
2021/07/27 04:09:18;;;;;;;11.68;6.30;;;;;;;-145.70;100.00;63560.63;5026581;28;20243;-58
2021/07/27 04:11:44;;;;;;;10.80;5.95;;;;;;;-145.70;100.00;63560.63;5025366;28;20044;-58
2021/07/27 04:14:12;;;;;;;7.45;4.95;;;;;;;-145.70;100.00;63560.63;5019038;28;20045;-59
2021/07/27 04:16:39;;;;;;;10.40;5.38;;;;;;;-145.70;100.00;63560.63;5028971;28;20414;-58
2021/07/27 04:19:05;;;;;;;9.52;5.10;;;;;;;-145.70;100.00;63560.63;5020163;28;20029;-58
2021/07/27 04:21:30;;;;;;;8.65;5.07;;;;;;;-145.70;100.00;63560.63;5023820;28;20383;-58
2021/07/27 04:23:56;;;;;;;8.90;5.00;;;;;;;-145.70;100.00;63560.63;5017655;28;20049;-57
2021/07/27 04:26:22;;;;;;;10.13;5.40;;;;;;;-145.70;100.00;63560.63;5024497;28;20549;-58
2021/07/27 04:28:47;;;;;;;11.25;6.10;;;;;;;-145.70;100.00;63560.63;5020298;28;20040;-57
2021/07/27 04:31:15;;;;;;;9.50;5.75;;;;;;;-145.70;100.00;63560.63;5024700;28;20029;-57
2021/07/27 04:33:40;;;;;;;8.95;5.38;;;;;;;-145.70;100.00;63560.63;5022113;28;20135;-58
2021/07/27 04:36:07;;;;;;;8.45;5.50;;;;;;;-145.70;100.00;63560.63;5026875;28;20449;-57
2021/07/27 04:38:32;;;;;;;9.35;5.60;;;;;;;-145.70;100.00;63560.63;5021615;28;20192;-58
2021/07/27 04:40:57;;;;;;;8.65;5.95;;;;;;;-145.70;100.00;63560.63;5021803;28;20500;-59
2021/07/27 04:43:27;;;;;;;8.80;6.15;;;;;;;-145.70;100.00;63560.63;5025960;28;20033;-58
2021/07/27 04:45:53;;;;;;;10.55;5.93;;;;;;;-145.70;100.00;63560.63;5020006;28;20315;-58
2021/07/27 04:48:21;;;;;;;9.68;5.38;;;;;;;-145.70;100.00;63560.63;5021212;28;20452;-58
2021/07/27 04:50:47;;;;;;;9.32;5.65;;;;;;;-145.70;100.00;63560.63;5022484;28;20021;-58
2021/07/27 04:53:13;;;;;;;8.45;5.82;;;;;;;-145.70;100.00;63560.63;5026146;28;20041;-58
2021/07/27 04:55:38;;;;;;;9.68;6.15;;;;;;;-145.70;100.00;63560.63;5023873;28;20053;-58
2021/07/27 04:58:05;;;;;;;10.43;5.68;;;;;;;-145.70;100.00;63560.63;5022301;28;20060;-58
2021/07/27 05:00:30;;;;;;;9.68;5.85;;;;;;;-145.70;100.00;63560.63;5024262;28;20112;-59
2021/07/27 05:02:58;;;;;;;10.82;6.32;;;;;;;-145.70;100.00;63560.63;5020953;28;20512;-58
2021/07/27 05:05:25;;;;;;;10.32;6.20;;;;;;;-145.70;100.00;63560.63;5021060;28;20616;-58
2021/07/27 05:07:50;;;;;;;11.50;6.22;;;;;;;-145.70;100.00;63560.63;5023922;28;20088;-58
2021/07/27 05:10:17;;;;;;;11.23;6.10;;;;;;;-145.70;100.00;63560.63;5021107;28;20100;-58
2021/07/27 05:12:42;;;;;;;7.88;5.07;;;;;;;-145.70;100.00;63560.63;5021925;28;20034;-59
2021/07/27 05:15:08;;;;;;;11.70;5.40;;;;;;;-145.70;100.00;63560.63;5018399;28;20036;-58
2021/07/27 05:17:33;;;;;;;9.45;5.70;;;;;;;-145.70;100.00;63560.63;5005506;28;20026;-58
2021/07/27 05:19:59;;;;;;;8.50;6.07;;;;;;;-145.70;100.00;63560.63;5016763;28;20386;-58
2021/07/27 05:22:24;;;;;;;14.32;6.68;;;;;;;-145.70;100.00;63560.63;5018296;28;20028;-58
2021/07/27 05:24:51;;;;;;;8.52;5.97;;;;;;;-145.70;100.00;63560.63;5020521;28;20040;-58
2021/07/27 05:27:21;;;;;;;10.15;6.20;;;;;;;-145.70;100.00;63560.63;5023534;28;20087;-58
2021/07/27 05:29:48;;;;;;;10.10;6.45;;;;;;;-145.70;100.00;63560.63;5019638;28;20021;-58
2021/07/27 05:32:13;;;;;;;10.48;6.40;;;;;;;-145.70;100.00;63560.63;5021415;28;20026;-58
2021/07/27 05:34:38;;;;;;;8.70;5.75;;;;;;;-145.70;100.00;63560.63;5020627;28;20033;-59
2021/07/27 05:37:04;;;;;;;13.20;6.55;;;;;;;-145.70;100.00;63560.63;5021516;28;20021;-59
2021/07/27 05:39:29;;;;;;;9.73;5.65;;;;;;;-145.70;100.00;63560.63;5024321;28;20029;-58
2021/07/27 05:41:54;;;;;;;10.13;6.32;;;;;;;-145.70;100.00;63560.63;5026220;28;20132;-58
2021/07/27 05:44:24;;;;;;;12.48;6.07;;;;;;;-145.70;100.00;63560.63;5020178;28;20104;-58
2021/07/27 05:46:50;;;;;;;14.73;6.97;;;;;;;-145.70;100.00;63560.63;5023583;28;20021;-59
2021/07/27 05:49:15;;;;;;;11.43;6.82;;;;;;;-145.70;100.00;63560.63;5018417;28;20507;-58
2021/07/27 05:51:41;;;;;;;11.43;6.55;;;;;;;-145.70;100.00;63560.63;5024364;28;20025;-58
2021/07/27 05:54:06;;;;;;;9.70;6.50;;;;;;;-145.70;100.00;63560.63;5021397;28;20107;-58
2021/07/27 05:56:32;;;;;;;11.98;6.40;;;;;;;-145.70;100.00;63560.63;5018352;28;20025;-58
2021/07/27 05:58:58;;;;;;;10.68;5.97;;;;;;;-145.70;100.00;63560.63;5022462;28;20030;-58
2021/07/27 06:01:23;;;;;;;10.80;6.00;;;;;;;-145.70;100.00;63560.63;5018526;28;20029;-60
2021/07/27 06:03:49;;;;;;;9.00;5.70;;;;;;;-145.70;100.00;63560.63;5024051;28;20028;-58
2021/07/27 06:06:14;;;;;;;9.10;5.55;;;;;;;-145.70;100.00;63560.63;5027841;28;20461;-58
2021/07/27 06:08:39;;;;;;;8.85;5.35;;;;;;;-145.70;100.00;63560.63;5025121;28;20781;-58
2021/07/27 06:11:06;;;;;;;10.82;6.45;;;;;;;-145.70;100.00;63560.63;5024578;28;20036;-59
2021/07/27 06:13:32;;;;;;;17.55;6.40;;;;;;;-145.70;100.00;63560.63;5020212;28;20041;-62
2021/07/27 06:16:02;;;;;;;13.75;5.68;;;;;;;-145.70;100.00;63560.63;5027319;28;20484;-62
2021/07/27 06:18:27;;;;;;;8.93;5.20;;;;;;;-145.70;100.00;63560.63;5023553;28;20374;-59
2021/07/27 06:20:53;;;;;;;8.23;4.88;;;;;;;-145.70;100.00;63560.63;5021371;28;20083;-58
2021/07/27 06:23:18;;;;;;;20.58;6.13;;;;;;;-145.70;100.00;63560.63;5021383;28;20536;-59
2021/07/27 06:25:43;;;;;;;9.75;5.22;;;;;;;-145.70;100.00;63560.63;5022689;28;20038;-58
2021/07/27 06:28:09;;;;;;;7.63;4.72;;;;;;;-145.70;100.00;63560.63;5018850;28;20026;-58
2021/07/27 06:30:34;;;;;;;11.27;5.68;;;;;;;-145.70;100.00;63560.63;5020793;28;20147;-59
2021/07/27 06:32:59;;;;;;;8.88;5.50;;;;;;;-145.70;100.00;63560.63;5027510;28;20034;-58
2021/07/27 06:35:25;;;;;;;10.52;5.28;;;;;;;-145.70;100.00;63560.63;5009622;28;20060;-58
2021/07/27 06:37:51;;;;;;;7.85;4.47;;;;;;;-145.70;100.00;63560.63;5024159;28;20017;-59
2021/07/27 06:40:17;;;;;;;8.68;5.32;;;;;;;-145.70;100.00;63560.63;5026789;28;20403;-59
2021/07/27 06:42:42;;;;;;;8.60;5.10;;;;;;;-145.70;100.00;63560.63;5025808;28;20167;-58
2021/07/27 06:45:09;;;;;;;8.55;5.53;;;;;;;-145.70;100.00;63560.63;5024462;28;20029;-58
2021/07/27 06:47:34;;;;;;;10.00;5.25;;;;;;;-145.70;100.00;63560.63;5024333;28;20025;-59
2021/07/27 06:50:00;;;;;;;9.38;5.30;;;;;;;-145.70;100.00;63560.63;5023665;28;20033;-59
2021/07/27 06:52:25;;;;;;;12.35;5.88;;;;;;;-145.70;100.00;63560.63;5017332;28;20033;-59
2021/07/27 06:54:50;;;;;;;9.32;5.80;;;;;;;-145.70;100.00;63560.63;5026793;28;20718;-59
2021/07/27 06:57:16;;;;;;;7.95;4.55;;;;;;;-145.70;100.00;63560.63;5027811;28;20162;-59
2021/07/27 06:59:41;;;;;;;7.82;5.03;;;;;;;-145.70;100.00;63560.63;5025508;28;20037;-59
2021/07/27 07:02:07;;;;;;;10.70;5.18;;;;;;;-145.70;100.00;63560.63;5025652;28;20044;-59
2021/07/27 07:04:32;;;;;;;10.48;5.07;;;;;;;-145.70;100.00;63560.63;5029673;28;20572;-58
2021/07/27 07:06:57;;;;;;;7.43;4.55;;;;;;;-145.70;100.00;63560.63;5028178;28;20029;-61
2021/07/27 07:09:24;;;;;;;7.95;4.97;;;;;;;-145.70;100.00;63560.63;5026364;28;20036;-59
2021/07/27 07:11:49;;;;;;;7.57;5.05;;;;;;;-145.70;100.00;63560.63;5026368;28;20365;-60
2021/07/27 07:14:15;;;;;;;7.75;4.60;;;;;;;-145.70;100.00;63560.63;5020623;28;20033;-59
2021/07/27 07:16:40;;;;;;;7.30;4.45;;;;;;;-145.70;100.00;63560.63;5024522;28;20022;-59
2021/07/27 07:19:05;;;;;;;8.63;5.20;;;;;;;-145.70;100.00;63560.63;5025955;28;20033;-59
2021/07/27 07:21:31;;;;;;;6.60;4.40;;;;;;;-145.70;100.00;63560.63;5024998;28;20025;-59
2021/07/27 07:23:56;;;;;;;10.55;4.90;;;;;;;-145.70;100.00;63560.63;5019683;28;20031;-59
2021/07/27 07:26:21;;;;;;;7.30;4.40;;;;;;;-145.70;100.00;63560.63;5021223;28;20068;-59
2021/07/27 07:28:47;;;;;;;15.85;5.38;;;;;;;-145.70;100.00;63560.63;5025221;28;20447;-59
2021/07/27 07:31:16;;;;;;;11.60;5.60;;;;;;;-145.70;100.00;63560.63;5023372;28;20025;-61
2021/07/27 07:33:42;;;;;;;11.52;5.07;;;;;;;-145.70;100.00;63560.63;5025631;28;20094;-61
2021/07/27 07:36:14;;;;;;;11.60;5.32;;;;;;;-145.70;100.00;63560.63;5019560;28;20350;-60
2021/07/27 07:38:40;;;;;;;9.63;5.22;;;;;;;-145.70;100.00;63560.63;5028625;28;20111;-58
2021/07/27 07:41:07;;;;;;;11.35;5.82;;;;;;;-145.70;100.00;63560.63;5028252;28;20284;-56
2021/07/27 07:43:33;;;;;;;16.40;5.78;;;;;;;-145.70;100.00;63560.63;5019840;28;20037;-62
2021/07/27 07:45:58;;;;;;;10.02;5.30;;;;;;;-145.70;100.00;63560.63;5023144;28;20111;-60
2021/07/27 07:48:23;;;;;;;21.77;5.45;;;;;;;-145.70;100.00;63560.63;5022573;28;20538;-60
2021/07/27 07:50:49;;;;;;;14.95;5.15;;;;;;;-145.70;100.00;63560.63;5024600;28;20053;-60
2021/07/27 07:53:14;;;;;;;10.18;5.60;;;;;;;-145.70;100.00;63560.63;5022749;28;20104;-60
2021/07/27 07:55:40;;;;;;;10.60;5.20;;;;;;;-145.70;100.00;63560.63;5008495;28;20064;-62
2021/07/27 07:58:05;;;;;;;7.70;5.28;;;;;;;-145.70;100.00;63560.63;5019627;28;20021;-69
2021/07/27 08:00:30;;;;;;;12.95;4.80;;;;;;;-145.70;100.00;63560.63;5021659;28;20128;-59
2021/07/27 08:02:56;;;;;;;13.13;4.90;;;;;;;-145.70;100.00;63560.63;5025766;28;20128;-58
2021/07/27 08:05:22;;;;;;;10.70;3.97;;;;;;;-145.70;100.00;63560.63;5025664;28;20500;-61
2021/07/27 08:07:47;;;;;;;5.97;3.35;;;;;;;-145.70;100.00;63560.63;5024377;28;20021;-61
2021/07/27 08:10:13;;;;;;;7.70;3.75;;;;;;;-145.70;100.00;63560.63;5026032;28;20153;-62
2021/07/27 08:12:39;;;;;;;7.13;4.10;;;;;;;-145.70;100.00;63560.63;5028758;28;20107;-61
2021/07/27 08:15:05;;;;;;;8.77;3.70;;;;;;;-145.70;100.00;63560.63;5002004;28;20067;-58
2021/07/27 08:17:31;;;;;;;6.78;3.50;;;;;;;-145.70;100.00;63560.63;5008140;28;20116;-57
2021/07/27 08:19:56;;;;;;;6.78;3.63;;;;;;;-145.70;100.00;63560.63;5023036;28;20155;-57
2021/07/27 08:22:21;;;;;;;11.35;4.00;;;;;;;-145.70;100.00;63560.63;5021375;28;20025;-58
2021/07/27 08:24:47;;;;;;;8.95;5.05;;;;;;;-145.70;100.00;63560.63;5023396;28;20508;-57
2021/07/27 08:27:12;;;;;;;7.28;4.05;;;;;;;-145.70;100.00;63560.63;5020647;28;20035;-57
2021/07/27 08:29:38;;;;;;;8.18;4.53;;;;;;;-145.70;100.00;63560.63;5022933;28;20109;-58
2021/07/27 08:32:10;;;;;;;7.78;4.20;;;;;;;-145.70;100.00;63560.63;5022549;28;20061;-58
2021/07/27 08:34:41;;;;;;;8.80;4.32;;;;;;;-145.70;100.00;63560.63;5019322;28;20033;-58
2021/07/27 08:37:07;;;;;;;8.15;4.65;;;;;;;-145.70;100.00;63560.63;4999323;28;20026;-58
2021/07/27 08:39:32;;;;;;;17.63;4.43;;;;;;;-145.70;100.00;63560.63;5020473;28;20028;-58
2021/07/27 08:42:03;;;;;;;19.92;4.20;;;;;;;-145.70;100.00;63560.63;5004407;28;20087;-57
2021/07/27 08:44:36;;;;;;;13.30;4.45;;;;;;;-145.70;100.00;63560.63;5001821;28;20030;-59
2021/07/27 08:47:05;;;;;;;14.25;4.45;;;;;;;-145.70;100.00;63560.63;5006151;28;20071;-60
2021/07/27 08:49:31;;;;;;;24.38;4.45;;;;;;;-145.70;100.00;63560.63;5002593;28;20502;-61
2021/07/27 08:51:58;;;;;;;6.93;3.10;;;;;;;-145.70;100.00;63560.63;5021784;28;20033;-59
2021/07/27 08:54:23;;;;;;;7.70;3.05;;;;;;;-145.70;100.00;63560.63;5022605;28;20148;-59
2021/07/27 08:56:50;;;;;;;23.67;4.13;;;;;;;-145.70;100.00;63560.63;5021885;28;20105;-58
2021/07/27 08:59:16;;;;;;;8.52;3.88;;;;;;;-145.70;100.00;63560.63;5019936;28;20076;-59
2021/07/27 09:01:42;;;;;;;6.65;3.80;;;;;;;-145.70;100.00;63560.63;5022417;28;20257;-57
2021/07/27 09:04:07;;;;;;;16.15;4.10;;;;;;;-145.70;100.00;63560.63;5024299;28;20063;-59
2021/07/27 09:06:33;;;;;;;22.75;7.95;;;;;;;-145.70;100.00;63560.63;5004920;28;20197;-62
2021/07/27 09:09:08;;;;;;;23.92;6.88;;;;;;;-145.70;100.00;63560.63;5026672;28;20064;-62
2021/07/27 09:11:45;;;;;;;24.40;7.65;;;;;;;-145.70;100.00;63560.63;5026369;28;20389;-60
2021/07/27 09:14:15;;;;;;;20.65;7.25;;;;;;;-145.70;100.00;63560.63;5000823;28;20021;-58
2021/07/27 09:16:48;;;;;;;16.63;5.80;;;;;;;-145.70;100.00;63560.63;5023992;28;20103;-58
2021/07/27 09:19:14;;;;;;;12.65;4.80;;;;;;;-145.70;100.00;63560.63;5019272;28;20029;-57
2021/07/27 09:21:42;;;;;;;16.48;7.00;;;;;;;-145.70;100.00;63560.63;5022149;28;20033;-58
2021/07/27 09:24:11;;;;;;;15.40;5.93;;;;;;;-145.70;100.00;63560.63;5019822;28;20024;-58
2021/07/27 09:26:37;;;;;;;11.57;5.20;;;;;;;-145.70;100.00;63560.63;5023816;28;20029;-60
2021/07/27 09:29:06;;;;;;;19.08;6.35;;;;;;;-145.70;100.00;63560.63;5019601;28;20093;-60
2021/07/27 09:31:32;;;;;;;15.48;5.38;;;;;;;-145.70;100.00;63560.63;5024622;28;20048;-60
2021/07/27 09:34:10;;;;;;;13.38;3.95;;;;;;;-145.70;100.00;63560.63;5020562;28;20025;-62
2021/07/27 09:36:35;;;;;;;9.88;3.05;;;;;;;-145.70;100.00;63560.63;4999142;28;20033;-57
2021/07/27 09:39:02;;;;;;;9.45;4.13;;;;;;;-145.70;100.00;63560.63;5023152;28;20175;-58
2021/07/27 09:41:31;;;;;;;6.97;4.15;;;;;;;-145.70;100.00;63560.63;5051223;28;20041;-60
2021/07/27 09:43:57;;;;;;;10.85;5.03;;;;;;;-145.70;100.00;63560.63;5010834;28;20036;-61
2021/07/27 09:46:26;;;;;;;7.13;3.63;;;;;;;-145.70;100.00;63560.63;5005146;28;20428;-62
2021/07/27 09:48:52;;;;;;;6.53;3.85;;;;;;;-145.70;100.00;63560.63;5003906;28;20018;-59
2021/07/27 09:51:18;;;;;;;10.73;4.70;;;;;;;-145.70;100.00;63560.63;5022386;28;20132;-58
2021/07/27 09:53:47;;;;;;;9.82;4.07;;;;;;;-145.70;100.00;63560.63;5024437;28;20076;-59
2021/07/27 09:56:13;;;;;;;9.65;3.80;;;;;;;-145.70;100.00;63560.63;5021983;28;20495;-59
2021/07/27 09:58:39;;;;;;;9.93;3.45;;;;;;;-145.70;100.00;63560.63;5019797;28;20172;-59
2021/07/27 10:01:09;;;;;;;7.00;3.45;;;;;;;-145.70;100.00;63560.63;5023988;28;20132;-58
2021/07/27 10:03:43;;;;;;;8.88;3.85;;;;;;;-145.70;100.00;63560.63;5018700;28;20029;-58
2021/07/27 10:06:09;;;;;;;13.05;5.05;;;;;;;-145.70;100.00;63560.63;5023339;28;20101;-58
2021/07/27 10:08:36;;;;;;;7.07;3.25;;;;;;;-145.70;100.00;63560.63;5029217;28;20057;-58
2021/07/27 10:11:09;;;;;;;7.63;3.90;;;;;;;-145.70;100.00;63560.63;5011043;28;20025;-58
2021/07/27 10:13:36;;;;;;;6.68;3.00;;;;;;;-145.70;100.00;63560.63;5023942;28;20056;-58
2021/07/27 10:16:02;;;;;;;7.93;3.35;;;;;;;-145.70;100.00;63560.63;5028863;28;20018;-57
2021/07/27 10:18:32;;;;;;;8.77;3.58;;;;;;;-145.70;100.00;63560.63;5026542;28;20330;-58
2021/07/27 10:21:24;;;;;;;5.90;2.80;;;;;;;-145.70;100.00;63560.63;5025111;28;20026;-58
2021/07/27 10:23:51;;;;;;;5.57;2.97;;;;;;;-145.70;100.00;63560.63;5021000;28;20029;-58
2021/07/27 10:26:33;;;;;;;7.32;3.50;;;;;;;-145.70;100.00;63560.63;5023100;28;20034;-58
2021/07/27 10:28:59;;;;;;;5.80;2.97;;;;;;;-145.70;100.00;63560.63;5026097;28;20108;-57
2021/07/27 10:31:34;;;;;;;6.18;3.17;;;;;;;-145.70;100.00;63560.63;5013628;28;20025;-58
2021/07/27 10:34:02;;;;;;;5.00;2.60;;;;;;;-145.70;100.00;63560.63;5022171;28;20095;-58
2021/07/27 10:36:31;;;;;;;6.28;2.47;;;;;;;-145.70;100.00;63560.63;5017099;28;20029;-58
2021/07/27 10:39:11;;;;;;;6.68;2.50;;;;;;;-145.70;100.00;63560.63;5025919;28;20029;-57
2021/07/27 10:41:43;;;;;;;;;;;;;;;-145.70;100.00;63560.63;5031343;28;20433;-58
2021/07/27 10:44:11;;;;;;;6.30;2.80;;;;;;;-145.70;100.00;63560.63;5023896;28;19943;-58
2021/07/27 10:46:38;;;;;;;5.57;2.55;;;;;;;-145.70;100.00;63560.63;5025107;28;20709;-57
2021/07/27 10:49:04;;;;;;;7.82;2.60;;;;;;;-145.70;100.00;63560.63;5022615;28;20044;-57
2021/07/27 10:51:36;;;;;;;6.13;2.30;;;;;;;-145.70;100.00;63560.63;5005235;28;20575;-56
2021/07/27 10:54:01;;;;;;;5.75;2.30;;;;;;;-145.70;100.00;63560.63;5009423;28;20619;-56
2021/07/27 10:56:31;;;;;;;4.72;2.10;;;;;;;-145.70;100.00;63560.63;5021291;28;20121;-57
2021/07/27 10:58:57;;;;;;;6.20;2.17;;;;;;;-145.70;100.00;63560.63;5025853;28;20761;-57
2021/07/27 11:01:29;;;;;;;4.40;2.00;;;;;;;-145.70;100.00;63560.63;5022861;28;20094;-55
2021/07/27 11:03:55;;;;;;;4.10;2.10;;;;;;;-145.70;100.00;63560.63;5053065;28;20104;-57
2021/07/27 11:06:21;;;;;;;3.78;1.70;;;;;;;-145.70;100.00;63560.63;5030594;28;20074;-56
2021/07/27 11:08:46;;;;;;;4.05;1.77;;;;;;;-145.70;100.00;63560.63;5021178;28;20025;-57
2021/07/27 11:11:13;;;;;;;4.05;1.88;;;;;;;-145.70;100.00;63560.63;5024093;28;20029;-57
2021/07/27 11:13:39;;;;;;;4.28;1.70;;;;;;;-145.70;100.00;63560.63;5022661;28;20057;-56
2021/07/27 11:16:05;;;;;;;4.45;1.90;;;;;;;-145.70;100.00;63560.63;5023677;28;20680;-56
2021/07/27 11:18:31;;;;;;;4.18;1.70;;;;;;;-145.70;100.00;63560.63;5022016;28;20297;-56
2021/07/27 11:20:58;;;;;;;4.32;1.50;;;;;;;-145.70;100.00;63560.63;5025458;28;20534;-56
2021/07/27 11:23:24;;;;;;;4.30;1.90;;;;;;;-145.70;100.00;63560.63;5022965;28;20032;-57
2021/07/27 11:25:56;;;;;;;3.97;1.70;;;;;;;-145.70;100.00;63560.63;5022978;28;20380;-56